sensor_id;sensor_type;location;lat;lon;timestamp;P1;durP1;ratioP1;P2;durP2;ratioP2
33327;SDS011;19692;52.998;9.116;2023-08-07T00:01:06;5.83;;;5.23;;
33327;SDS011;19692;52.998;9.116;2023-08-07T00:03:32;10.90;;;5.47;;
33327;SDS011;19692;52.998;9.116;2023-08-07T00:05:57;6.57;;;4.80;;
33327;SDS011;19692;52.998;9.116;2023-08-07T00:08:23;6.20;;;5.47;;
33327;SDS011;19692;52.998;9.116;2023-08-07T00:10:49;5.57;;;4.40;;
33327;SDS011;19692;52.998;9.116;2023-08-07T00:13:14;9.23;;;4.77;;
33327;SDS011;19692;52.998;9.116;2023-08-07T00:15:40;5.23;;;4.30;;
33327;SDS011;19692;52.998;9.116;2023-08-07T00:18:06;5.57;;;4.53;;
33327;SDS011;19692;52.998;9.116;2023-08-07T00:20:32;6.40;;;4.93;;
33327;SDS011;19692;52.998;9.116;2023-08-07T00:22:58;4.63;;;4.07;;
33327;SDS011;19692;52.998;9.116;2023-08-07T00:25:23;6.13;;;4.33;;
33327;SDS011;19692;52.998;9.116;2023-08-07T00:27:49;5.03;;;4.43;;
33327;SDS011;19692;52.998;9.116;2023-08-07T00:30:15;5.37;;;4.87;;
33327;SDS011;19692;52.998;9.116;2023-08-07T00:32:41;4.90;;;4.50;;
33327;SDS011;19692;52.998;9.116;2023-08-07T00:35:07;5.10;;;4.60;;
33327;SDS011;19692;52.998;9.116;2023-08-07T00:37:33;5.30;;;4.80;;
33327;SDS011;19692;52.998;9.116;2023-08-07T00:39:59;7.47;;;5.90;;
33327;SDS011;19692;52.998;9.116;2023-08-07T00:42:24;5.80;;;5.23;;
33327;SDS011;19692;52.998;9.116;2023-08-07T00:44:50;6.27;;;4.83;;
33327;SDS011;19692;52.998;9.116;2023-08-07T00:47:16;7.20;;;5.70;;
33327;SDS011;19692;52.998;9.116;2023-08-07T00:49:42;6.43;;;5.63;;
33327;SDS011;19692;52.998;9.116;2023-08-07T00:52:08;6.87;;;6.20;;
33327;SDS011;19692;52.998;9.116;2023-08-07T00:54:34;8.67;;;6.53;;
33327;SDS011;19692;52.998;9.116;2023-08-07T00:57:03;7.60;;;5.77;;
33327;SDS011;19692;52.998;9.116;2023-08-07T00:59:37;7.70;;;6.87;;
33327;SDS011;19692;52.998;9.116;2023-08-07T01:02:04;6.87;;;6.23;;
33327;SDS011;19692;52.998;9.116;2023-08-07T01:04:40;6.97;;;6.30;;
33327;SDS011;19692;52.998;9.116;2023-08-07T01:07:07;7.40;;;6.70;;
33327;SDS011;19692;52.998;9.116;2023-08-07T01:09:33;7.97;;;6.40;;
33327;SDS011;19692;52.998;9.116;2023-08-07T01:14:54;9.17;;;6.80;;
33327;SDS011;19692;52.998;9.116;2023-08-07T01:17:31;9.23;;;6.93;;
33327;SDS011;19692;52.998;9.116;2023-08-07T01:19:59;8.83;;;6.87;;
33327;SDS011;19692;52.998;9.116;2023-08-07T01:22:26;7.53;;;6.67;;
33327;SDS011;19692;52.998;9.116;2023-08-07T01:24:51;11.07;;;7.03;;
33327;SDS011;19692;52.998;9.116;2023-08-07T01:35:46;9.40;;;7.60;;
33327;SDS011;19692;52.998;9.116;2023-08-07T01:38:17;8.33;;;6.90;;
33327;SDS011;19692;52.998;9.116;2023-08-07T01:40:43;8.83;;;6.13;;
33327;SDS011;19692;52.998;9.116;2023-08-07T01:43:11;9.77;;;7.07;;
33327;SDS011;19692;52.998;9.116;2023-08-07T01:45:36;7.83;;;6.80;;
33327;SDS011;19692;52.998;9.116;2023-08-07T01:48:02;9.70;;;7.23;;
33327;SDS011;19692;52.998;9.116;2023-08-07T01:54:09;8.50;;;6.97;;
33327;SDS011;19692;52.998;9.116;2023-08-07T01:56:35;8.80;;;7.90;;
33327;SDS011;19692;52.998;9.116;2023-08-07T01:59:01;11.37;;;7.70;;
33327;SDS011;19692;52.998;9.116;2023-08-07T02:01:27;9.70;;;8.80;;
33327;SDS011;19692;52.998;9.116;2023-08-07T02:03:52;8.77;;;7.87;;
33327;SDS011;19692;52.998;9.116;2023-08-07T02:06:18;10.73;;;8.30;;
33327;SDS011;19692;52.998;9.116;2023-08-07T02:08:44;10.40;;;8.07;;
33327;SDS011;19692;52.998;9.116;2023-08-07T02:11:09;11.73;;;8.53;;
33327;SDS011;19692;52.998;9.116;2023-08-07T02:13:35;9.30;;;8.10;;
33327;SDS011;19692;52.998;9.116;2023-08-07T02:16:01;9.73;;;8.70;;
33327;SDS011;19692;52.998;9.116;2023-08-07T02:18:27;11.13;;;8.20;;
33327;SDS011;19692;52.998;9.116;2023-08-07T02:20:53;10.77;;;8.87;;
33327;SDS011;19692;52.998;9.116;2023-08-07T02:23:19;11.33;;;9.37;;
33327;SDS011;19692;52.998;9.116;2023-08-07T02:25:45;10.73;;;8.90;;
33327;SDS011;19692;52.998;9.116;2023-08-07T02:28:11;12.30;;;9.47;;
33327;SDS011;19692;52.998;9.116;2023-08-07T02:30:36;9.40;;;8.03;;
33327;SDS011;19692;52.998;9.116;2023-08-07T02:33:02;10.57;;;9.07;;
33327;SDS011;19692;52.998;9.116;2023-08-07T02:35:28;11.13;;;8.43;;
33327;SDS011;19692;52.998;9.116;2023-08-07T02:37:53;9.23;;;8.30;;
33327;SDS011;19692;52.998;9.116;2023-08-07T02:40:19;11.50;;;9.10;;
33327;SDS011;19692;52.998;9.116;2023-08-07T02:42:45;10.77;;;9.73;;
33327;SDS011;19692;52.998;9.116;2023-08-07T02:45:11;12.67;;;9.20;;
33327;SDS011;19692;52.998;9.116;2023-08-07T02:47:36;12.53;;;9.30;;
33327;SDS011;19692;52.998;9.116;2023-08-07T02:50:02;11.10;;;9.97;;
33327;SDS011;19692;52.998;9.116;2023-08-07T02:52:29;9.87;;;8.20;;
33327;SDS011;19692;52.998;9.116;2023-08-07T02:54:55;11.83;;;8.27;;
33327;SDS011;19692;52.998;9.116;2023-08-07T02:57:20;11.67;;;8.40;;
33327;SDS011;19692;52.998;9.116;2023-08-07T02:59:46;11.23;;;8.80;;
33327;SDS011;19692;52.998;9.116;2023-08-07T03:02:12;8.63;;;7.77;;
33327;SDS011;19692;52.998;9.116;2023-08-07T03:04:37;13.30;;;8.37;;
33327;SDS011;19692;52.998;9.116;2023-08-07T03:07:03;8.70;;;7.80;;
33327;SDS011;19692;52.998;9.116;2023-08-07T03:09:29;9.20;;;8.00;;
33327;SDS011;19692;52.998;9.116;2023-08-07T03:11:55;11.47;;;8.47;;
33327;SDS011;19692;52.998;9.116;2023-08-07T03:14:21;9.53;;;8.27;;
33327;SDS011;19692;52.998;9.116;2023-08-07T03:16:46;10.57;;;8.27;;
33327;SDS011;19692;52.998;9.116;2023-08-07T03:19:12;8.87;;;7.97;;
33327;SDS011;19692;52.998;9.116;2023-08-07T03:21:38;9.23;;;8.17;;
33327;SDS011;19692;52.998;9.116;2023-08-07T03:24:04;10.77;;;7.73;;
33327;SDS011;19692;52.998;9.116;2023-08-07T03:26:29;10.23;;;8.47;;
33327;SDS011;19692;52.998;9.116;2023-08-07T03:28:55;9.90;;;8.63;;
33327;SDS011;19692;52.998;9.116;2023-08-07T03:31:21;9.87;;;8.40;;
33327;SDS011;19692;52.998;9.116;2023-08-07T03:33:47;10.80;;;8.30;;
33327;SDS011;19692;52.998;9.116;2023-08-07T03:36:12;13.40;;;8.37;;
33327;SDS011;19692;52.998;9.116;2023-08-07T03:38:38;10.33;;;8.90;;
33327;SDS011;19692;52.998;9.116;2023-08-07T03:41:04;10.70;;;9.10;;
33327;SDS011;19692;52.998;9.116;2023-08-07T03:43:29;11.63;;;8.50;;
33327;SDS011;19692;52.998;9.116;2023-08-07T03:45:56;11.03;;;8.43;;
33327;SDS011;19692;52.998;9.116;2023-08-07T03:48:22;11.70;;;8.70;;
33327;SDS011;19692;52.998;9.116;2023-08-07T03:50:47;10.10;;;8.60;;
33327;SDS011;19692;52.998;9.116;2023-08-07T03:53:13;9.17;;;8.20;;
33327;SDS011;19692;52.998;9.116;2023-08-07T03:55:39;10.70;;;8.03;;
33327;SDS011;19692;52.998;9.116;2023-08-07T03:58:06;9.37;;;8.17;;
33327;SDS011;19692;52.998;9.116;2023-08-07T04:00:33;9.50;;;8.10;;
33327;SDS011;19692;52.998;9.116;2023-08-07T04:02:58;10.93;;;7.90;;
33327;SDS011;19692;52.998;9.116;2023-08-07T04:05:24;11.27;;;7.90;;
33327;SDS011;19692;52.998;9.116;2023-08-07T04:07:50;10.60;;;8.43;;
33327;SDS011;19692;52.998;9.116;2023-08-07T04:10:16;8.60;;;7.63;;
33327;SDS011;19692;52.998;9.116;2023-08-07T04:12:41;9.67;;;7.47;;
33327;SDS011;19692;52.998;9.116;2023-08-07T04:15:07;10.53;;;7.57;;
33327;SDS011;19692;52.998;9.116;2023-08-07T04:17:35;10.70;;;6.90;;
33327;SDS011;19692;52.998;9.116;2023-08-07T04:20:01;9.87;;;7.00;;
33327;SDS011;19692;52.998;9.116;2023-08-07T04:22:28;6.30;;;5.70;;
33327;SDS011;19692;52.998;9.116;2023-08-07T04:24:54;7.10;;;5.40;;
33327;SDS011;19692;52.998;9.116;2023-08-07T04:27:19;5.90;;;4.63;;
33327;SDS011;19692;52.998;9.116;2023-08-07T04:29:45;6.20;;;5.00;;
33327;SDS011;19692;52.998;9.116;2023-08-07T04:32:11;4.83;;;4.33;;
33327;SDS011;19692;52.998;9.116;2023-08-07T04:34:37;7.10;;;4.53;;
33327;SDS011;19692;52.998;9.116;2023-08-07T04:37:02;6.03;;;4.17;;
33327;SDS011;19692;52.998;9.116;2023-08-07T04:39:28;4.57;;;4.13;;
33327;SDS011;19692;52.998;9.116;2023-08-07T04:41:55;4.57;;;4.17;;
33327;SDS011;19692;52.998;9.116;2023-08-07T04:44:21;4.17;;;3.77;;
33327;SDS011;19692;52.998;9.116;2023-08-07T04:46:46;4.20;;;3.80;;
33327;SDS011;19692;52.998;9.116;2023-08-07T04:49:12;6.87;;;4.17;;
33327;SDS011;19692;52.998;9.116;2023-08-07T04:51:38;6.40;;;3.77;;
33327;SDS011;19692;52.998;9.116;2023-08-07T04:54:04;5.23;;;3.63;;
33327;SDS011;19692;52.998;9.116;2023-08-07T04:56:29;4.90;;;3.53;;
33327;SDS011;19692;52.998;9.116;2023-08-07T04:58:56;5.80;;;3.77;;
33327;SDS011;19692;52.998;9.116;2023-08-07T05:01:22;5.73;;;3.47;;
33327;SDS011;19692;52.998;9.116;2023-08-07T05:03:48;5.07;;;3.30;;
33327;SDS011;19692;52.998;9.116;2023-08-07T05:06:13;4.53;;;4.13;;
33327;SDS011;19692;52.998;9.116;2023-08-07T05:08:39;3.97;;;3.40;;
33327;SDS011;19692;52.998;9.116;2023-08-07T05:11:05;5.07;;;3.47;;
33327;SDS011;19692;52.998;9.116;2023-08-07T05:13:31;5.03;;;3.60;;
33327;SDS011;19692;52.998;9.116;2023-08-07T05:15:57;4.73;;;3.20;;
33327;SDS011;19692;52.998;9.116;2023-08-07T05:18:23;5.23;;;3.50;;
33327;SDS011;19692;52.998;9.116;2023-08-07T05:20:48;5.27;;;3.63;;
33327;SDS011;19692;52.998;9.116;2023-08-07T05:23:14;3.57;;;3.17;;
33327;SDS011;19692;52.998;9.116;2023-08-07T05:25:40;4.53;;;3.20;;
33327;SDS011;19692;52.998;9.116;2023-08-07T05:28:05;6.97;;;3.50;;
33327;SDS011;19692;52.998;9.116;2023-08-07T05:30:31;4.50;;;3.43;;
33327;SDS011;19692;52.998;9.116;2023-08-07T05:32:57;4.83;;;3.20;;
33327;SDS011;19692;52.998;9.116;2023-08-07T05:35:23;3.30;;;3.00;;
33327;SDS011;19692;52.998;9.116;2023-08-07T05:37:49;4.53;;;3.30;;
33327;SDS011;19692;52.998;9.116;2023-08-07T05:40:15;6.07;;;3.00;;
33327;SDS011;19692;52.998;9.116;2023-08-07T05:42:40;4.73;;;3.50;;
33327;SDS011;19692;52.998;9.116;2023-08-07T05:45:06;4.37;;;3.30;;
33327;SDS011;19692;52.998;9.116;2023-08-07T05:47:33;5.67;;;3.67;;
33327;SDS011;19692;52.998;9.116;2023-08-07T05:49:59;4.73;;;3.03;;
33327;SDS011;19692;52.998;9.116;2023-08-07T05:52:24;6.97;;;3.17;;
33327;SDS011;19692;52.998;9.116;2023-08-07T05:54:50;6.97;;;4.23;;
33327;SDS011;19692;52.998;9.116;2023-08-07T05:57:17;4.57;;;2.77;;
33327;SDS011;19692;52.998;9.116;2023-08-07T05:59:43;3.83;;;3.20;;
33327;SDS011;19692;52.998;9.116;2023-08-07T06:02:09;7.00;;;3.17;;
33327;SDS011;19692;52.998;9.116;2023-08-07T06:04:37;4.17;;;3.23;;
33327;SDS011;19692;52.998;9.116;2023-08-07T06:07:04;3.87;;;3.20;;
33327;SDS011;19692;52.998;9.116;2023-08-07T06:09:30;3.80;;;3.23;;
33327;SDS011;19692;52.998;9.116;2023-08-07T06:11:56;5.47;;;3.40;;
33327;SDS011;19692;52.998;9.116;2023-08-07T06:14:22;4.10;;;3.40;;
33327;SDS011;19692;52.998;9.116;2023-08-07T06:16:50;6.30;;;3.70;;
33327;SDS011;19692;52.998;9.116;2023-08-07T06:19:16;4.87;;;3.00;;
33327;SDS011;19692;52.998;9.116;2023-08-07T06:21:42;3.50;;;3.20;;
33327;SDS011;19692;52.998;9.116;2023-08-07T06:24:08;4.20;;;2.77;;
33327;SDS011;19692;52.998;9.116;2023-08-07T06:26:34;5.00;;;3.17;;
33327;SDS011;19692;52.998;9.116;2023-08-07T06:29:00;3.20;;;2.70;;
33327;SDS011;19692;52.998;9.116;2023-08-07T06:31:25;2.83;;;2.53;;
33327;SDS011;19692;52.998;9.116;2023-08-07T06:33:51;4.57;;;3.60;;
33327;SDS011;19692;52.998;9.116;2023-08-07T06:36:17;6.23;;;2.70;;
33327;SDS011;19692;52.998;9.116;2023-08-07T06:38:43;6.00;;;3.13;;
33327;SDS011;19692;52.998;9.116;2023-08-07T06:41:09;5.33;;;3.23;;
33327;SDS011;19692;52.998;9.116;2023-08-07T06:43:34;6.57;;;3.33;;
33327;SDS011;19692;52.998;9.116;2023-08-07T06:46:00;4.00;;;2.60;;
33327;SDS011;19692;52.998;9.116;2023-08-07T06:48:26;15.30;;;9.83;;
33327;SDS011;19692;52.998;9.116;2023-08-07T06:50:52;6.87;;;3.13;;
33327;SDS011;19692;52.998;9.116;2023-08-07T06:53:18;6.80;;;2.90;;
33327;SDS011;19692;52.998;9.116;2023-08-07T06:55:44;7.10;;;4.17;;
33327;SDS011;19692;52.998;9.116;2023-08-07T06:58:10;8.37;;;3.50;;
33327;SDS011;19692;52.998;9.116;2023-08-07T07:00:36;4.50;;;3.20;;
33327;SDS011;19692;52.998;9.116;2023-08-07T07:03:03;5.40;;;3.10;;
33327;SDS011;19692;52.998;9.116;2023-08-07T07:05:30;5.60;;;2.60;;
33327;SDS011;19692;52.998;9.116;2023-08-07T07:07:56;5.10;;;2.97;;
33327;SDS011;19692;52.998;9.116;2023-08-07T07:10:22;10.77;;;3.67;;
33327;SDS011;19692;52.998;9.116;2023-08-07T07:12:48;5.57;;;3.00;;
33327;SDS011;19692;52.998;9.116;2023-08-07T07:15:14;4.50;;;2.80;;
33327;SDS011;19692;52.998;9.116;2023-08-07T07:17:40;7.57;;;3.73;;
33327;SDS011;19692;52.998;9.116;2023-08-07T07:20:06;10.13;;;4.30;;
33327;SDS011;19692;52.998;9.116;2023-08-07T07:22:34;10.83;;;3.60;;
33327;SDS011;19692;52.998;9.116;2023-08-07T07:25:00;7.90;;;3.80;;
33327;SDS011;19692;52.998;9.116;2023-08-07T07:27:26;9.20;;;4.20;;
33327;SDS011;19692;52.998;9.116;2023-08-07T07:29:52;9.77;;;3.93;;
33327;SDS011;19692;52.998;9.116;2023-08-07T07:32:18;8.80;;;3.83;;
33327;SDS011;19692;52.998;9.116;2023-08-07T07:34:43;9.23;;;4.00;;
33327;SDS011;19692;52.998;9.116;2023-08-07T07:37:09;10.83;;;3.70;;
33327;SDS011;19692;52.998;9.116;2023-08-07T07:39:35;8.90;;;3.53;;
33327;SDS011;19692;52.998;9.116;2023-08-07T07:42:01;13.40;;;4.27;;
33327;SDS011;19692;52.998;9.116;2023-08-07T07:44:29;9.13;;;4.37;;
33327;SDS011;19692;52.998;9.116;2023-08-07T07:46:55;9.67;;;4.13;;
33327;SDS011;19692;52.998;9.116;2023-08-07T07:49:21;10.73;;;3.67;;
33327;SDS011;19692;52.998;9.116;2023-08-07T07:51:46;13.73;;;6.67;;
33327;SDS011;19692;52.998;9.116;2023-08-07T07:54:13;9.77;;;5.03;;
33327;SDS011;19692;52.998;9.116;2023-08-07T07:56:39;8.10;;;4.83;;
33327;SDS011;19692;52.998;9.116;2023-08-07T07:59:05;9.97;;;3.73;;
33327;SDS011;19692;52.998;9.116;2023-08-07T08:01:30;11.23;;;4.03;;
33327;SDS011;19692;52.998;9.116;2023-08-07T08:03:56;8.13;;;4.17;;
33327;SDS011;19692;52.998;9.116;2023-08-07T08:06:22;11.57;;;4.43;;
33327;SDS011;19692;52.998;9.116;2023-08-07T08:08:48;10.10;;;4.10;;
33327;SDS011;19692;52.998;9.116;2023-08-07T08:11:14;10.07;;;3.73;;
33327;SDS011;19692;52.998;9.116;2023-08-07T08:13:39;7.97;;;4.30;;
33327;SDS011;19692;52.998;9.116;2023-08-07T08:16:06;10.80;;;4.00;;
33327;SDS011;19692;52.998;9.116;2023-08-07T08:18:32;11.70;;;4.83;;
33327;SDS011;19692;52.998;9.116;2023-08-07T08:20:58;12.67;;;3.83;;
33327;SDS011;19692;52.998;9.116;2023-08-07T08:23:24;10.30;;;4.17;;
33327;SDS011;19692;52.998;9.116;2023-08-07T08:25:49;13.27;;;4.30;;
33327;SDS011;19692;52.998;9.116;2023-08-07T08:28:16;8.57;;;3.50;;
33327;SDS011;19692;52.998;9.116;2023-08-07T08:30:42;7.63;;;3.00;;
33327;SDS011;19692;52.998;9.116;2023-08-07T08:33:08;9.43;;;3.57;;
33327;SDS011;19692;52.998;9.116;2023-08-07T08:35:37;13.33;;;4.10;;
33327;SDS011;19692;52.998;9.116;2023-08-07T08:38:03;9.50;;;3.40;;
33327;SDS011;19692;52.998;9.116;2023-08-07T08:40:30;10.83;;;3.63;;
33327;SDS011;19692;52.998;9.116;2023-08-07T08:42:56;7.70;;;3.40;;
33327;SDS011;19692;52.998;9.116;2023-08-07T08:45:25;9.40;;;3.27;;
33327;SDS011;19692;52.998;9.116;2023-08-07T08:47:53;7.80;;;3.67;;
33327;SDS011;19692;52.998;9.116;2023-08-07T08:50:26;8.93;;;3.30;;
33327;SDS011;19692;52.998;9.116;2023-08-07T08:52:52;7.73;;;3.40;;
33327;SDS011;19692;52.998;9.116;2023-08-07T08:55:20;8.87;;;3.03;;
33327;SDS011;19692;52.998;9.116;2023-08-07T08:57:47;8.00;;;3.30;;
33327;SDS011;19692;52.998;9.116;2023-08-07T09:00:15;11.10;;;3.60;;
33327;SDS011;19692;52.998;9.116;2023-08-07T09:02:45;9.00;;;4.50;;
33327;SDS011;19692;52.998;9.116;2023-08-07T09:05:16;11.47;;;4.30;;
33327;SDS011;19692;52.998;9.116;2023-08-07T09:07:44;10.67;;;5.43;;
33327;SDS011;19692;52.998;9.116;2023-08-07T09:10:12;7.83;;;4.30;;
33327;SDS011;19692;52.998;9.116;2023-08-07T09:12:44;12.27;;;4.40;;
33327;SDS011;19692;52.998;9.116;2023-08-07T09:15:33;9.80;;;4.03;;
33327;SDS011;19692;52.998;9.116;2023-08-07T09:18:01;5.10;;;3.90;;
33327;SDS011;19692;52.998;9.116;2023-08-07T09:20:32;5.20;;;3.80;;
33327;SDS011;19692;52.998;9.116;2023-08-07T09:23:00;6.57;;;3.80;;
33327;SDS011;19692;52.998;9.116;2023-08-07T09:25:27;7.60;;;3.00;;
33327;SDS011;19692;52.998;9.116;2023-08-07T09:27:54;6.77;;;3.93;;
33327;SDS011;19692;52.998;9.116;2023-08-07T09:30:25;10.63;;;4.23;;
33327;SDS011;19692;52.998;9.116;2023-08-07T09:32:53;8.00;;;4.33;;
33327;SDS011;19692;52.998;9.116;2023-08-07T09:35:21;7.67;;;4.63;;
33327;SDS011;19692;52.998;9.116;2023-08-07T09:37:48;8.77;;;4.93;;
33327;SDS011;19692;52.998;9.116;2023-08-07T09:40:14;11.60;;;4.50;;
33327;SDS011;19692;52.998;9.116;2023-08-07T09:42:41;10.40;;;4.40;;
33327;SDS011;19692;52.998;9.116;2023-08-07T09:45:20;9.10;;;5.17;;
33327;SDS011;19692;52.998;9.116;2023-08-07T09:48:00;7.10;;;4.20;;
33327;SDS011;19692;52.998;9.116;2023-08-07T09:50:28;12.27;;;5.13;;
33327;SDS011;19692;52.998;9.116;2023-08-07T09:52:55;9.67;;;5.20;;
33327;SDS011;19692;52.998;9.116;2023-08-07T09:55:23;13.47;;;5.80;;
33327;SDS011;19692;52.998;9.116;2023-08-07T09:57:49;9.77;;;4.50;;
33327;SDS011;19692;52.998;9.116;2023-08-07T10:00:16;15.07;;;5.03;;
33327;SDS011;19692;52.998;9.116;2023-08-07T10:02:46;15.60;;;4.80;;
33327;SDS011;19692;52.998;9.116;2023-08-07T10:05:14;7.37;;;3.63;;
33327;SDS011;19692;52.998;9.116;2023-08-07T10:07:40;14.00;;;5.03;;
33327;SDS011;19692;52.998;9.116;2023-08-07T10:10:07;9.70;;;4.90;;
33327;SDS011;19692;52.998;9.116;2023-08-07T10:12:33;11.70;;;4.97;;
33327;SDS011;19692;52.998;9.116;2023-08-07T10:14:59;8.90;;;4.47;;
33327;SDS011;19692;52.998;9.116;2023-08-07T10:17:25;13.20;;;4.27;;
33327;SDS011;19692;52.998;9.116;2023-08-07T10:19:53;10.67;;;4.17;;
33327;SDS011;19692;52.998;9.116;2023-08-07T10:22:18;11.43;;;3.87;;
33327;SDS011;19692;52.998;9.116;2023-08-07T10:24:47;8.80;;;4.13;;
33327;SDS011;19692;52.998;9.116;2023-08-07T10:27:17;7.10;;;3.90;;
33327;SDS011;19692;52.998;9.116;2023-08-07T10:29:46;8.83;;;4.53;;
33327;SDS011;19692;52.998;9.116;2023-08-07T10:32:14;8.83;;;4.30;;
33327;SDS011;19692;52.998;9.116;2023-08-07T10:34:52;11.60;;;4.13;;
33327;SDS011;19692;52.998;9.116;2023-08-07T10:40:05;9.60;;;4.57;;
33327;SDS011;19692;52.998;9.116;2023-08-07T10:42:57;9.37;;;4.50;;
33327;SDS011;19692;52.998;9.116;2023-08-07T10:45:36;10.33;;;3.97;;
33327;SDS011;19692;52.998;9.116;2023-08-07T10:53:29;7.40;;;3.63;;
33327;SDS011;19692;52.998;9.116;2023-08-07T10:56:01;8.30;;;3.70;;
33327;SDS011;19692;52.998;9.116;2023-08-07T10:58:37;6.17;;;3.77;;
33327;SDS011;19692;52.998;9.116;2023-08-07T11:03:56;8.80;;;4.07;;
33327;SDS011;19692;52.998;9.116;2023-08-07T11:06:25;9.10;;;3.80;;
33327;SDS011;19692;52.998;9.116;2023-08-07T11:08:56;8.80;;;4.00;;
33327;SDS011;19692;52.998;9.116;2023-08-07T11:11:23;4.17;;;2.70;;
33327;SDS011;19692;52.998;9.116;2023-08-07T11:13:49;7.20;;;3.50;;
33327;SDS011;19692;52.998;9.116;2023-08-07T11:16:16;9.47;;;3.90;;
33327;SDS011;19692;52.998;9.116;2023-08-07T11:18:43;9.37;;;4.10;;
33327;SDS011;19692;52.998;9.116;2023-08-07T11:21:09;7.83;;;4.90;;
33327;SDS011;19692;52.998;9.116;2023-08-07T11:23:36;8.67;;;4.33;;
33327;SDS011;19692;52.998;9.116;2023-08-07T11:26:03;6.83;;;3.30;;
33327;SDS011;19692;52.998;9.116;2023-08-07T11:28:29;7.60;;;4.00;;
33327;SDS011;19692;52.998;9.116;2023-08-07T11:30:56;8.33;;;3.90;;
33327;SDS011;19692;52.998;9.116;2023-08-07T11:33:23;10.60;;;4.10;;
33327;SDS011;19692;52.998;9.116;2023-08-07T11:35:50;6.47;;;3.90;;
33327;SDS011;19692;52.998;9.116;2023-08-07T11:38:32;9.17;;;3.60;;
33327;SDS011;19692;52.998;9.116;2023-08-07T11:41:03;8.97;;;3.80;;
33327;SDS011;19692;52.998;9.116;2023-08-07T11:43:31;7.27;;;3.30;;
33327;SDS011;19692;52.998;9.116;2023-08-07T11:46:00;8.07;;;3.53;;
33327;SDS011;19692;52.998;9.116;2023-08-07T11:48:35;6.47;;;3.67;;
33327;SDS011;19692;52.998;9.116;2023-08-07T11:51:02;7.40;;;3.30;;
33327;SDS011;19692;52.998;9.116;2023-08-07T11:53:33;6.33;;;3.53;;
33327;SDS011;19692;52.998;9.116;2023-08-07T11:56:07;8.00;;;4.03;;
33327;SDS011;19692;52.998;9.116;2023-08-07T11:58:39;10.20;;;3.73;;
33327;SDS011;19692;52.998;9.116;2023-08-07T12:01:14;6.47;;;4.17;;
33327;SDS011;19692;52.998;9.116;2023-08-07T12:03:42;6.97;;;3.63;;
33327;SDS011;19692;52.998;9.116;2023-08-07T12:06:52;7.17;;;4.10;;
33327;SDS011;19692;52.998;9.116;2023-08-07T12:09:19;8.57;;;3.63;;
33327;SDS011;19692;52.998;9.116;2023-08-07T12:11:45;5.93;;;3.70;;
33327;SDS011;19692;52.998;9.116;2023-08-07T12:14:15;7.50;;;3.77;;
33327;SDS011;19692;52.998;9.116;2023-08-07T12:16:43;7.13;;;3.30;;
33327;SDS011;19692;52.998;9.116;2023-08-07T12:19:13;7.23;;;3.47;;
33327;SDS011;19692;52.998;9.116;2023-08-07T12:21:40;9.83;;;3.83;;
33327;SDS011;19692;52.998;9.116;2023-08-07T12:24:08;5.27;;;4.17;;
33327;SDS011;19692;52.998;9.116;2023-08-07T12:26:34;6.00;;;3.70;;
33327;SDS011;19692;52.998;9.116;2023-08-07T12:28:59;8.80;;;3.90;;
33327;SDS011;19692;52.998;9.116;2023-08-07T12:31:25;7.10;;;4.63;;
33327;SDS011;19692;52.998;9.116;2023-08-07T12:33:51;6.23;;;3.63;;
33327;SDS011;19692;52.998;9.116;2023-08-07T12:36:17;8.53;;;4.17;;
33327;SDS011;19692;52.998;9.116;2023-08-07T12:38:42;6.10;;;3.90;;
33327;SDS011;19692;52.998;9.116;2023-08-07T12:41:08;9.03;;;3.50;;
33327;SDS011;19692;52.998;9.116;2023-08-07T12:43:34;5.37;;;3.70;;
33327;SDS011;19692;52.998;9.116;2023-08-07T12:46:00;7.37;;;4.43;;
33327;SDS011;19692;52.998;9.116;2023-08-07T12:48:26;7.63;;;4.13;;
33327;SDS011;19692;52.998;9.116;2023-08-07T12:50:53;9.80;;;3.87;;
33327;SDS011;19692;52.998;9.116;2023-08-07T12:53:19;8.77;;;3.47;;
33327;SDS011;19692;52.998;9.116;2023-08-07T12:55:45;8.20;;;3.50;;
33327;SDS011;19692;52.998;9.116;2023-08-07T12:58:10;8.13;;;3.57;;
33327;SDS011;19692;52.998;9.116;2023-08-07T13:00:36;7.23;;;3.50;;
33327;SDS011;19692;52.998;9.116;2023-08-07T13:03:02;7.57;;;3.50;;
33327;SDS011;19692;52.998;9.116;2023-08-07T13:05:28;7.23;;;3.23;;
33327;SDS011;19692;52.998;9.116;2023-08-07T13:07:56;5.37;;;2.97;;
33327;SDS011;19692;52.998;9.116;2023-08-07T13:10:23;6.20;;;2.40;;
33327;SDS011;19692;52.998;9.116;2023-08-07T13:12:49;6.73;;;2.47;;
33327;SDS011;19692;52.998;9.116;2023-08-07T13:15:15;6.03;;;2.93;;
33327;SDS011;19692;52.998;9.116;2023-08-07T13:17:42;6.27;;;3.30;;
33327;SDS011;19692;52.998;9.116;2023-08-07T13:20:10;4.93;;;2.93;;
33327;SDS011;19692;52.998;9.116;2023-08-07T13:22:38;5.00;;;3.40;;
33327;SDS011;19692;52.998;9.116;2023-08-07T13:25:06;7.00;;;3.77;;
33327;SDS011;19692;52.998;9.116;2023-08-07T13:27:34;8.27;;;4.17;;
33327;SDS011;19692;52.998;9.116;2023-08-07T13:30:00;5.53;;;3.03;;
33327;SDS011;19692;52.998;9.116;2023-08-07T13:32:26;14.17;;;3.80;;
33327;SDS011;19692;52.998;9.116;2023-08-07T13:34:52;9.13;;;4.20;;
33327;SDS011;19692;52.998;9.116;2023-08-07T13:37:18;8.93;;;3.80;;
33327;SDS011;19692;52.998;9.116;2023-08-07T13:39:45;9.57;;;4.53;;
33327;SDS011;19692;52.998;9.116;2023-08-07T13:42:13;6.17;;;4.10;;
33327;SDS011;19692;52.998;9.116;2023-08-07T13:44:39;8.77;;;3.67;;
33327;SDS011;19692;52.998;9.116;2023-08-07T13:47:05;5.67;;;3.60;;
33327;SDS011;19692;52.998;9.116;2023-08-07T13:49:31;7.40;;;4.30;;
33327;SDS011;19692;52.998;9.116;2023-08-07T13:51:57;6.00;;;3.30;;
33327;SDS011;19692;52.998;9.116;2023-08-07T13:54:23;11.70;;;4.27;;
33327;SDS011;19692;52.998;9.116;2023-08-07T13:56:49;12.83;;;4.13;;
33327;SDS011;19692;52.998;9.116;2023-08-07T13:59:15;6.07;;;3.50;;
33327;SDS011;19692;52.998;9.116;2023-08-07T14:01:41;10.63;;;4.23;;
33327;SDS011;19692;52.998;9.116;2023-08-07T14:04:07;9.43;;;4.53;;
33327;SDS011;19692;52.998;9.116;2023-08-07T14:06:33;7.93;;;4.00;;
33327;SDS011;19692;52.998;9.116;2023-08-07T14:08:58;7.40;;;3.60;;
33327;SDS011;19692;52.998;9.116;2023-08-07T14:11:24;9.77;;;4.03;;
33327;SDS011;19692;52.998;9.116;2023-08-07T14:13:55;5.60;;;3.03;;
33327;SDS011;19692;52.998;9.116;2023-08-07T14:16:27;7.93;;;3.70;;
33327;SDS011;19692;52.998;9.116;2023-08-07T14:18:53;7.13;;;3.30;;
33327;SDS011;19692;52.998;9.116;2023-08-07T14:21:19;7.57;;;4.30;;
33327;SDS011;19692;52.998;9.116;2023-08-07T14:23:45;8.97;;;3.97;;
33327;SDS011;19692;52.998;9.116;2023-08-07T14:26:12;5.07;;;3.63;;
33327;SDS011;19692;52.998;9.116;2023-08-07T14:28:38;7.43;;;4.07;;
33327;SDS011;19692;52.998;9.116;2023-08-07T14:31:07;5.90;;;3.87;;
33327;SDS011;19692;52.998;9.116;2023-08-07T14:33:34;5.53;;;3.73;;
33327;SDS011;19692;52.998;9.116;2023-08-07T14:36:00;6.53;;;3.33;;
33327;SDS011;19692;52.998;9.116;2023-08-07T14:38:26;5.37;;;3.43;;
33327;SDS011;19692;52.998;9.116;2023-08-07T14:40:53;6.00;;;3.50;;
33327;SDS011;19692;52.998;9.116;2023-08-07T14:43:19;6.87;;;3.70;;
33327;SDS011;19692;52.998;9.116;2023-08-07T14:45:44;7.07;;;3.27;;
33327;SDS011;19692;52.998;9.116;2023-08-07T14:48:10;4.93;;;3.40;;
33327;SDS011;19692;52.998;9.116;2023-08-07T14:50:36;6.97;;;3.50;;
33327;SDS011;19692;52.998;9.116;2023-08-07T14:53:02;5.23;;;2.30;;
33327;SDS011;19692;52.998;9.116;2023-08-07T14:55:27;5.27;;;2.77;;
33327;SDS011;19692;52.998;9.116;2023-08-07T14:57:53;7.23;;;2.43;;
33327;SDS011;19692;52.998;9.116;2023-08-07T15:00:19;5.87;;;2.53;;
33327;SDS011;19692;52.998;9.116;2023-08-07T15:02:45;5.20;;;2.70;;
33327;SDS011;19692;52.998;9.116;2023-08-07T15:05:11;7.53;;;3.03;;
33327;SDS011;19692;52.998;9.116;2023-08-07T15:07:39;5.40;;;2.90;;
33327;SDS011;19692;52.998;9.116;2023-08-07T15:10:05;7.00;;;2.43;;